Time;durP1;ratioP1;P1;durP2;ratioP2;P2;SDS_P1;SDS_P2;PMS_P1;PMS_P2;Temp;Humidity;BMP_temperature;BMP_pressure;BME280_temperature;BME280_humidity;BME280_pressure;Samples;Min_cycle;Max_cycle;Signal;HPM_P1;HPM_P2
2023/07/29 00:01:21;;;;;;;;;;;;;;;16.18;100.00;100807.41;5073226;28;19916;-73
2023/07/29 00:03:47;;;;;;;;;;;;;;;16.18;100.00;100804.72;5073576;28;20249;-72
2023/07/29 00:06:12;;;;;;;;;;;;;;;16.15;100.00;100805.06;5073389;28;19927;-72
2023/07/29 00:08:37;;;;;;;;;;;;;;;16.08;100.00;100799.59;5073100;28;19921;-72
2023/07/29 00:11:02;;;;;;;;;;;;;;;16.00;100.00;100805.84;5073181;28;19920;-72
2023/07/29 00:13:28;;;;;;;;;;;;;;;15.92;100.00;100799.69;5073117;28;20011;-72
2023/07/29 00:15:54;;;;;;;;;;;;;;;15.84;100.00;100792.50;5055436;28;19933;-72
2023/07/29 00:18:19;;;;;;;;;;;;;;;15.77;100.00;100805.72;5055326;28;19920;-73
2023/07/29 00:20:45;;;;;;;;;;;;;;;15.70;100.00;100802.06;5073101;28;19924;-72
2023/07/29 00:23:10;;;;;;;;;;;;;;;15.64;100.00;100800.91;5073016;28;19920;-72
2023/07/29 00:25:35;;;;;;;;;;;;;;;15.61;100.00;100803.94;5073233;28;19931;-72
2023/07/29 00:28:01;;;;;;;;;;;;;;;15.60;100.00;100804.97;5055277;28;19970;-72
2023/07/29 00:30:26;;;;;;;;;;;;;;;15.57;100.00;100807.16;5072938;28;19928;-72
2023/07/29 00:32:51;;;;;;;;;;;;;;;15.51;100.00;100796.13;5073395;28;20331;-72
2023/07/29 00:35:16;;;;;;;;;;;;;;;15.47;100.00;100794.78;5074135;28;20357;-72
2023/07/29 00:37:41;;;;;;;;;;;;;;;15.42;100.00;100797.16;5076650;28;20367;-72
2023/07/29 00:40:14;;;;;;;;;;;;;;;15.36;100.00;100797.00;5076635;28;19924;-72
2023/07/29 00:42:39;;;;;;;;;;;;;;;15.31;100.00;100792.16;5076414;28;20368;-72
2023/07/29 00:45:07;;;;;;;;;;;;;;;15.26;100.00;100784.63;5076229;28;19921;-72
2023/07/29 00:47:32;;;;;;;;;;;;;;;15.22;100.00;100788.63;5076062;28;19962;-72
2023/07/29 00:49:57;;;;;;;;;;;;;;;15.20;100.00;100787.13;5076128;28;20287;-72
2023/07/29 00:52:23;;;;;;;;;;;;;;;15.16;100.00;100784.78;5076315;28;19928;-73
2023/07/29 00:54:48;;;;;;;;;;;;;;;15.17;100.00;100785.66;5058956;28;19929;-72
2023/07/29 00:57:15;;;;;;;;;;;;;;;15.17;100.00;100788.34;5075803;28;20007;-72
2023/07/29 00:59:40;;;;;;;;;;;;;;;15.18;100.00;100787.31;5075855;28;19916;-72
2023/07/29 01:02:05;;;;;;;;;;;;;;;15.17;100.00;100780.28;5058173;28;20265;-72
2023/07/29 01:04:31;;;;;;;;;;;;;;;15.19;100.00;100780.94;5075778;28;20365;-72
2023/07/29 01:07:02;;;;;;;;;;;;;;;15.21;100.00;100780.78;5076091;28;20007;-72
2023/07/29 01:09:38;;;;;;;;;;;;;;;15.19;100.00;100780.94;5076499;28;19956;-72
2023/07/29 01:12:04;;;;;;;;;;;;;;;15.20;100.00;100781.78;5076621;28;19981;-72
2023/07/29 01:14:46;;;;;;;;;;;;;;;15.18;100.00;100775.75;5075782;28;20376;-73
2023/07/29 01:17:15;;;;;;;;;;;;;;;15.16;100.00;100773.25;5076471;28;19924;-72
2023/07/29 01:19:43;;;;;;;;;;;;;;;15.13;100.00;100771.75;5075698;28;19921;-72
2023/07/29 01:22:10;;;;;;;;;;;;;;;15.12;100.00;100764.72;5075430;28;19916;-71
2023/07/29 01:24:35;;;;;;;;;;;;;;;15.13;100.00;100770.91;5076032;28;19970;-72
2023/07/29 01:27:01;;;;;;;;;;;;;;;15.11;100.00;100768.41;5075754;28;19929;-72
2023/07/29 01:29:27;;;;;;;;;;;;;;;15.09;100.00;100764.22;5076245;28;19925;-72
2023/07/29 01:31:54;;;;;;;;;;;;;;;15.06;100.00;100765.41;5076100;28;20353;-71
2023/07/29 01:34:54;;;;;;;;;;;;;;;15.05;100.00;100773.59;5075643;28;19916;-72
2023/07/29 01:37:22;;;;;;;;;;;;;;;15.02;100.00;100768.56;4974688;28;20005;-72
2023/07/29 01:39:49;;;;;;;;;;;;;;;15.00;100.00;100763.38;5055581;28;19970;-72
2023/07/29 01:42:15;;;;;;;;;;;;;;;14.96;100.00;100770.13;5075418;28;19917;-72
2023/07/29 01:44:42;;;;;;;;;;;;;;;14.92;100.00;100764.25;5075811;28;19916;-72
2023/07/29 01:47:07;;;;;;;;;;;;;;;14.90;100.00;100768.09;5074368;28;20021;-72
2023/07/29 01:49:32;;;;;;;;;;;;;;;14.87;100.00;100757.72;5075388;28;19921;-72
2023/07/29 01:51:58;;;;;;;;;;;;;;;14.87;100.00;100747.00;5075791;28;19932;-72
2023/07/29 01:54:23;;;;;;;;;;;;;;;14.84;100.00;100750.88;5075444;28;19920;-72
2023/07/29 01:56:51;;;;;;;;;;;;;;;14.81;100.00;100754.72;5075277;28;19920;-72
2023/07/29 01:59:16;;;;;;;;;;;;;;;14.80;100.00;100761.06;5075809;28;19935;-72
2023/07/29 02:01:42;;;;;;;;;;;;;;;14.82;100.00;100752.88;5057280;28;20279;-70
2023/07/29 02:04:07;;;;;;;;;;;;;;;14.80;100.00;100754.88;5075390;28;19921;-72
2023/07/29 02:06:33;;;;;;;;;;;;;;;14.78;100.00;100754.22;5074977;28;19928;-73
2023/07/29 02:08:58;;;;;;;;;;;;;;;14.77;100.00;100750.69;5057009;28;19959;-71
2023/07/29 02:11:27;;;;;;;;;;;;;;;14.77;100.00;100752.53;5074663;28;19917;-72
2023/07/29 02:13:52;;;;;;;;;;;;;;;14.78;100.00;100739.00;5057863;28;19970;-72
2023/07/29 02:16:18;;;;;;;;;;;;;;;14.78;100.00;100739.00;5074769;28;19921;-72
2023/07/29 02:18:43;;;;;;;;;;;;;;;14.80;100.00;100741.50;5075166;28;20341;-70
2023/07/29 02:21:08;;;;;;;;;;;;;;;14.80;100.00;100738.81;5074894;28;19928;-72
2023/07/29 02:23:33;;;;;;;;;;;;;;;14.79;100.00;100737.13;5074330;28;19920;-72
2023/07/29 02:25:59;;;;;;;;;;;;;;;14.79;100.00;100731.78;5056761;28;19921;-72
2023/07/29 02:28:24;;;;;;;;;;;;;;;14.77;100.00;100731.94;5074549;28;20467;-72
2023/07/29 02:31:08;;;;;;;;;;;;;;;14.78;100.00;100732.81;5074433;28;19920;-72
2023/07/29 02:33:33;;;;;;;;;;;;;;;14.78;100.00;100730.94;5074666;28;19917;-70
2023/07/29 02:35:59;;;;;;;;;;;;;;;14.80;100.00;100731.59;5074315;28;20387;-72
2023/07/29 02:38:24;;;;;;;;;;;;;;;14.79;100.00;100726.41;5074386;28;20419;-73
2023/07/29 02:40:49;;;;;;;;;;;;;;;14.80;100.00;100720.06;5074224;28;19921;-73
2023/07/29 02:43:14;;;;;;;;;;;;;;;14.81;100.00;100716.41;5074832;28;19927;-72
2023/07/29 02:45:39;;;;;;;;;;;;;;;14.81;100.00;100711.03;5074173;28;19969;-71
2023/07/29 02:48:05;;;;;;;;;;;;;;;14.81;100.00;100703.81;5074481;28;19927;-70
2023/07/29 02:50:30;;;;;;;;;;;;;;;14.81;100.00;100705.69;5074388;28;20011;-70
2023/07/29 02:52:55;;;;;;;;;;;;;;;14.79;100.00;100710.34;5074278;28;20018;-70
2023/07/29 02:55:20;;;;;;;;;;;;;;;14.79;100.00;100710.34;5073889;28;20019;-70
2023/07/29 02:57:45;;;;;;;;;;;;;;;14.77;100.00;100715.88;5073795;28;20015;-70
2023/07/29 03:00:11;;;;;;;;;;;;;;;14.81;100.00;100719.06;5074309;28;19978;-72
2023/07/29 03:02:36;;;;;;;;;;;;;;;14.85;100.00;100709.66;5074479;28;19924;-72
2023/07/29 03:05:02;;;;;;;;;;;;;;;14.89;100.00;100708.31;5074171;28;19920;-72
2023/07/29 03:07:27;;;;;;;;;;;;;;;14.93;100.00;100720.38;5073919;28;19921;-72
2023/07/29 03:09:52;;;;;;;;;;;;;;;14.98;100.00;100711.81;5074142;28;20411;-72
2023/07/29 03:12:17;;;;;;;;;;;;;;;15.03;100.00;100719.34;5073512;28;19958;-70
2023/07/29 03:14:42;;;;;;;;;;;;;;;15.07;100.00;100721.50;5073733;28;19963;-73
2023/07/29 03:17:08;;;;;;;;;;;;;;;15.12;100.00;100724.53;5056837;28;19920;-72
2023/07/29 03:19:33;;;;;;;;;;;;;;;15.19;100.00;100731.88;5074112;28;19943;-72
2023/07/29 03:21:58;;;;;;;;;;;;;;;15.23;100.00;100726.00;5073656;28;20391;-72
2023/07/29 03:24:23;;;;;;;;;;;;;;;15.29;100.00;100727.16;5055975;28;19924;-72
2023/07/29 03:26:49;;;;;;;;;;;;;;;15.33;100.00;100718.59;5073681;28;19921;-72
2023/07/29 03:29:14;;;;;;;;;;;;;;;15.38;100.00;100715.38;5073751;28;20303;-72
2023/07/29 03:31:39;;;;;;;;;;;;;;;15.43;100.00;100718.38;5073406;28;20365;-72
2023/07/29 03:34:04;;;;;;;;;;;;;;;15.48;100.00;100723.22;5074002;28;20311;-73
2023/07/29 03:36:30;;;;;;;;;;;;;;;15.49;100.00;100717.69;5073580;28;19974;-72
2023/07/29 03:38:55;;;;;;;;;;;;;;;15.51;100.00;100726.41;5073602;28;19920;-72
2023/07/29 03:41:20;;;;;;;;;;;;;;;15.55;100.00;100736.78;5073572;28;20008;-72
2023/07/29 03:43:45;;;;;;;;;;;;;;;15.55;100.00;100734.91;5073577;28;19932;-72
2023/07/29 03:46:11;;;;;;;;;;;;;;;15.57;100.00;100740.09;5073890;28;20015;-72
2023/07/29 03:48:36;;;;;;;;;;;;;;;15.60;100.00;100731.72;5073485;28;20034;-70
2023/07/29 03:51:01;;;;;;;;;;;;;;;15.62;100.00;100721.66;5073389;28;19916;-72
2023/07/29 03:53:26;;;;;;;;;;;;;;;15.63;100.00;100716.13;5073877;28;19920;-72
2023/07/29 03:55:52;;;;;;;;;;;;;;;15.64;100.00;100723.13;5073013;28;19921;-72
2023/07/29 03:58:17;;;;;;;;;;;;;;;15.65;100.00;100724.00;5055297;28;20400;-72
2023/07/29 04:00:42;;;;;;;;;;;;;;;15.67;100.00;100725.50;5073349;28;19964;-73
2023/07/29 04:03:08;;;;;;;;;;;;;;;15.70;100.00;100737.69;5072901;28;19970;-72
2023/07/29 04:05:33;;;;;;;;;;;;;;;15.72;100.00;100730.34;5073321;28;19916;-72
2023/07/29 04:07:58;;;;;;;;;;;;;;;15.74;100.00;100717.56;5072896;28;20368;-72
2023/07/29 04:10:24;;;;;;;;;;;;;;;15.74;100.00;100709.53;5074221;28;20015;-72
2023/07/29 04:12:49;;;;;;;;;;;;;;;15.77;100.00;100705.66;5077095;28;19966;-72
2023/07/29 04:15:14;;;;;;;;;;;;;;;15.76;100.00;100710.16;5077020;28;20376;-72
2023/07/29 04:17:39;;;;;;;;;;;;;;;15.78;100.00;100704.66;5077028;28;20276;-72
2023/07/29 04:20:05;;;;;;;;;;;;;;;15.79;100.00;100717.91;5076890;28;19921;-72
2023/07/29 04:22:30;;;;;;;;;;;;;;;15.79;100.00;100722.44;5076902;28;19917;-72
2023/07/29 04:24:55;;;;;;;;;;;;;;;15.79;100.00;100725.94;5076849;28;19924;-73
2023/07/29 04:27:21;;;;;;;;;;;;;;;15.81;100.00;100726.63;5077061;28;19917;-72
2023/07/29 04:29:46;;;;;;;;;;;;;;;15.82;100.00;100730.13;5076781;28;19925;-72
2023/07/29 04:32:11;;;;;;;;;;;;;;;15.84;100.00;100733.50;5059323;28;19928;-72
2023/07/29 04:34:36;;;;;;;;;;;;;;;15.85;100.00;100736.00;5076728;28;19927;-72
2023/07/29 04:37:02;;;;;;;;;;;;;;;15.87;100.00;100730.44;5076577;28;20427;-73
2023/07/29 04:39:27;;;;;;;;;;;;;;;15.89;100.00;100731.09;5076696;28;20019;-72
2023/07/29 04:41:52;;;;;;;;;;;;;;;15.91;100.00;100733.59;5076604;28;19927;-72
2023/07/29 04:44:17;;;;;;;;;;;;;;;15.91;100.00;100734.44;5076856;28;19921;-72
2023/07/29 04:46:43;;;;;;;;;;;;;;;15.92;100.00;100735.28;5076520;28;19920;-72
2023/07/29 04:49:08;;;;;;;;;;;;;;;15.93;100.00;100739.63;5076385;28;19921;-72
2023/07/29 04:51:33;;;;;;;;;;;;;;;15.94;100.00;100741.31;5076378;28;19921;-72
2023/07/29 04:53:58;;;;;;;;;;;;;;;15.94;100.00;100738.63;5076154;28;19917;-72
2023/07/29 04:56:24;;;;;;;;;;;;;;;15.95;100.00;100743.81;5076081;28;19927;-72
2023/07/29 04:58:49;;;;;;;;;;;;;;;15.95;100.00;100742.97;5076168;28;20439;-72
2023/07/29 05:01:14;;;;;;;;;;;;;;;15.95;100.00;100732.25;5076657;28;19920;-72
2023/07/29 05:03:40;;;;;;;;;;;;;;;15.96;100.00;100733.91;5076460;28;19946;-72
2023/07/29 05:06:05;;;;;;;;;;;;;;;15.97;100.00;100733.75;5076329;28;19924;-72
2023/07/29 05:08:30;;;;;;;;;;;;;;;16.00;100.00;100733.41;5075681;28;20372;-72
2023/07/29 05:10:56;;;;;;;;;;;;;;;16.03;100.00;100735.72;5075764;28;19985;-71
2023/07/29 05:13:21;;;;;;;;;;;;;;;16.06;100.00;100731.81;5075543;28;19960;-72
2023/07/29 05:15:47;;;;;;;;;;;;;;;16.11;100.00;100729.47;5075971;28;19931;-72
2023/07/29 05:18:12;;;;;;;;;;;;;;;16.18;100.00;100727.75;5076659;28;20320;-72
2023/07/29 05:20:37;;;;;;;;;;;;;;;16.21;100.00;100729.19;5075505;28;19917;-72
2023/07/29 05:23:03;;;;;;;;;;;;;;;16.26;100.00;100715.25;5075714;28;19943;-72
2023/07/29 05:25:28;;;;;;;;;;;;;;;16.30;100.00;100713.88;5075794;28;19920;-72
2023/07/29 05:27:54;;;;;;;;;;;;;;;16.35;100.00;100716.88;5075965;28;19916;-72
2023/07/29 05:30:19;;;;;;;;;;;;;;;16.39;100.00;100727.06;5075827;28;19991;-72
2023/07/29 05:32:44;;;;;;;;;;;;;;;16.47;100.00;100720.78;5075864;28;19920;-72
2023/07/29 05:35:10;;;;;;;;;;;;;;;16.54;100.00;100721.75;5075720;28;20368;-72
2023/07/29 05:37:37;;;;;;;;;;;;;;;16.61;100.00;100721.00;5075657;28;19962;-72
2023/07/29 05:40:03;;;;;;;;;;;;;;;16.64;100.00;100724.16;5075452;28;19924;-73
2023/07/29 05:42:28;;;;;;;;;;;;;;;16.68;100.00;100716.59;5075721;28;19920;-72
2023/07/29 05:44:53;;;;;;;;;;;;;;;16.69;100.00;100718.25;5075402;28;19920;-72
2023/07/29 05:47:19;;;;;;;;;;;;;;;16.71;100.00;100713.53;5075312;28;19920;-72
2023/07/29 05:49:44;;;;;;;;;;;;;;;16.73;100.00;100719.56;5040762;28;19920;-72
2023/07/29 05:52:09;;;;;;;;;;;;;;;16.75;100.00;100723.72;5074998;28;19921;-72
2023/07/29 05:54:34;;;;;;;;;;;;;;;16.77;100.00;100720.03;5075193;28;20367;-72
2023/07/29 05:56:59;;;;;;;;;;;;;;;16.75;100.00;100726.41;5057251;28;19921;-72
2023/07/29 05:59:25;;;;;;;;;;;;;;;16.78;100.00;100725.22;5075096;28;19924;-72
2023/07/29 06:01:50;;;;;;;;;;;;;;;16.80;100.00;100725.03;5075550;28;19917;-72
2023/07/29 06:04:15;;;;;;;;;;;;;;;16.80;100.00;100733.09;5074746;28;20280;-72
2023/07/29 06:06:40;;;;;;;;;;;;;;;16.86;100.00;100735.88;5074485;28;19962;-72
2023/07/29 06:09:06;;;;;;;;;;;;;;;16.88;100.00;100728.53;5074894;28;19920;-73
2023/07/29 06:11:31;;;;;;;;;;;;;;;16.91;100.00;100735.34;5074899;28;20030;-72
2023/07/29 06:13:56;;;;;;;;;;;;;;;16.97;100.00;100731.94;5057121;28;19920;-72
2023/07/29 06:16:21;;;;;;;;;;;;;;;17.04;100.00;100732.88;5057288;28;19954;-72
2023/07/29 06:18:47;;;;;;;;;;;;;;;17.08;100.00;100738.72;5074598;28;19963;-72
2023/07/29 06:21:16;;;;;;;;;;;;;;;17.16;100.00;100737.81;5074579;28;19928;-73
2023/07/29 06:23:42;;;;;;;;;;;;;;;17.24;100.00;100735.00;5074579;28;19920;-72
2023/07/29 06:26:07;;;;;;;;;;;;;;;17.30;100.00;100734.25;5074560;28;19969;-76
2023/07/29 06:28:32;;;;;;;;;;;;;;;17.35;100.00;100737.25;5074764;28;19920;-70
2023/07/29 06:30:57;;;;;;;;;;;;;;;17.41;100.00;100738.38;5074202;28;19931;-72
2023/07/29 06:33:23;;;;;;;;;;;;;;;17.42;100.00;100742.69;5073788;28;19995;-73
2023/07/29 06:35:48;;;;;;;;;;;;;;;17.43;100.00;100737.13;5075067;28;20007;-73
2023/07/29 06:38:13;;;;;;;;;;;;;;;17.46;100.00;100738.63;5074271;28;19927;-72
2023/07/29 06:40:39;;;;;;;;;;;;;;;17.55;100.00;100737.50;5074340;28;19921;-72
2023/07/29 06:43:04;;;;;;;;;;;;;;;17.70;100.00;100731.28;5074565;28;19928;-72
2023/07/29 06:45:29;;;;;;;;;;;;;;;17.75;100.00;100740.44;5074159;28;20012;-73
2023/07/29 06:47:54;;;;;;;;;;;;;;;17.73;100.00;100734.41;5073873;28;19956;-72
2023/07/29 06:50:20;;;;;;;;;;;;;;;17.76;100.00;100727.81;5074118;28;19921;-73
2023/07/29 06:52:45;;;;;;;;;;;;;;;17.82;100.00;100737.00;5073799;28;20364;-72
2023/07/29 06:55:10;;;;;;;;;;;;;;;18.01;100.00;100733.72;5074001;28;20383;-72
2023/07/29 06:57:36;;;;;;;;;;;;;;;18.41;100.00;100733.31;5074099;28;19927;-72
2023/07/29 07:00:01;;;;;;;;;;;;;;;18.61;100.00;100730.75;5074165;28;19921;-72
2023/07/29 07:02:26;;;;;;;;;;;;;;;18.78;100.00;100740.25;5073675;28;19950;-72
2023/07/29 07:04:52;;;;;;;;;;;;;;;18.97;100.00;100736.06;5074209;28;19920;-71
2023/07/29 07:07:17;;;;;;;;;;;;;;;19.15;100.00;100732.84;5073527;28;19970;-71
2023/07/29 07:09:42;;;;;;;;;;;;;;;19.18;100.00;100742.38;5073820;28;20333;-70
2023/07/29 07:12:08;;;;;;;;;;;;;;;18.93;100.00;100736.63;5073827;28;19924;-72
2023/07/29 07:14:33;;;;;;;;;;;;;;;18.93;100.00;100740.19;5073600;28;19967;-71
2023/07/29 07:16:58;;;;;;;;;;;;;;;18.95;100.00;100739.97;5073893;28;19928;-70
2023/07/29 07:19:23;;;;;;;;;;;;;;;19.07;100.00;100742.97;5073713;28;20273;-69
2023/07/29 07:21:48;;;;;;;;;;;;;;;19.22;100.00;100746.38;5073576;28;20379;-77
2023/07/29 07:24:14;;;;;;;;;;;;;;;19.41;100.00;100744.81;5073358;28;20431;-74
2023/07/29 07:26:39;;;;;;;;;;;;;;;19.69;100.00;100749.28;5073283;28;20351;-73
2023/07/29 07:29:05;;;;;;;;;;;;;;;19.75;100.00;100745.81;5073297;28;20022;-73
2023/07/29 07:31:32;;;;;;;;;;;;;;;19.58;100.00;100745.31;5073471;28;19973;-73
2023/07/29 07:33:58;;;;;;;;;;;;;;;19.26;100.00;100749.47;5073118;28;19970;-73
2023/07/29 07:36:23;;;;;;;;;;;;;;;19.07;100.00;100762.66;5054969;28;20019;-75
2023/07/29 07:38:48;;;;;;;;;;;;;;;18.94;100.00;100757.16;5073112;28;19920;-76
2023/07/29 07:41:13;;;;;;;;;;;;;;;18.83;100.00;100753.13;5073173;28;20299;-76
2023/07/29 07:43:39;;;;;;;;;;;;;;;18.91;100.00;100766.47;5073116;28;19974;-76
2023/07/29 07:46:04;;;;;;;;;;;;;;;18.95;100.00;100766.94;5075290;28;19928;-76
2023/07/29 07:48:30;;;;;;;;;;;;;;;19.06;100.00;100762.84;5076864;28;19916;-74
2023/07/29 07:50:55;;;;;;;;;;;;;;;19.21;100.00;100758.19;5059289;28;19927;-72
2023/07/29 07:53:20;;;;;;;;;;;;;;;19.28;100.00;100763.63;5077056;28;20007;-75
2023/07/29 07:55:46;;;;;;;;;;;;;;;19.51;100.00;100763.31;5077154;28;20023;-73
2023/07/29 07:58:11;;;;;;;;;;;;;;;19.63;100.00;100767.13;5077441;28;19931;-74
2023/07/29 08:00:37;;;;;;;;;;;;;;;19.72;100.00;100759.69;5077077;28;20261;-73
2023/07/29 08:03:02;;;;;;;;;;;;;;;19.71;100.00;100758.84;5059810;28;19916;-74
2023/07/29 08:05:27;;;;;;;;;;;;;;;19.60;100.00;100762.16;5076682;28;19917;-73
2023/07/29 08:07:52;;;;;;;;;;;;;;;19.44;100.00;100774.09;5076745;28;19921;-75
2023/07/29 08:10:18;;;;;;;;;;;;;;;19.52;100.00;100773.09;5076979;28;19977;-74
2023/07/29 08:12:43;;;;;;;;;;;;;;;19.58;100.00;100774.16;5076887;28;19973;-73
2023/07/29 08:15:08;;;;;;;;;;;;;;;19.56;100.00;100779.75;5076543;28;19935;-74
2023/07/29 08:17:33;;;;;;;;;;;;;;;19.58;100.00;100787.66;5076412;28;19917;-74
2023/07/29 08:19:59;;;;;;;;;;;;;;;19.54;100.00;100787.19;5058993;28;19923;-75
2023/07/29 08:22:24;;;;;;;;;;;;;;;19.53;100.00;100794.47;5075914;28;20014;-74
2023/07/29 08:24:49;;;;;;;;;;;;;;;19.53;100.00;100788.25;5075949;28;19916;-73
2023/07/29 08:27:14;;;;;;;;;;;;;;;19.60;100.00;100783.72;5076404;28;19947;-74
2023/07/29 08:29:40;;;;;;;;;;;;;;;19.76;100.00;100779.84;5076851;28;19974;-73
2023/07/29 08:32:05;;;;;;;;;;;;;;;20.07;100.00;100779.34;5076050;28;20344;-72
2023/07/29 08:34:30;;;;;;;;;;;;;;;20.54;100.00;100775.91;5058905;28;20261;-71
2023/07/29 08:36:55;;;;;;;;;;;;;;;20.99;100.00;100772.63;5076637;28;19952;-73
2023/07/29 08:39:21;;;;;;;;;;;;;;;21.41;100.00;100782.13;5076270;28;19928;-74
2023/07/29 08:42:07;;;;;;;;;;;;;;;21.55;100.00;100779.41;5076142;28;19925;-75
2023/07/29 08:44:36;;;;;;;;;;;;;;;21.52;100.00;100777.13;5076166;28;19916;-73
2023/07/29 08:47:02;;;;;;;;;;;;;;;21.33;100.00;100771.50;5076249;28;19928;-73
2023/07/29 08:49:28;;;;;;;;;;;;;;;21.28;100.00;100791.09;5075820;28;19920;-75
2023/07/29 08:51:54;;;;;;;;;;;;;;;21.14;100.00;100789.47;5075953;28;19916;-72
2023/07/29 08:54:20;;;;;;;;;;;;;;;21.10;100.00;100789.03;5076026;28;19978;-73
2023/07/29 08:56:45;;;;;;;;;;;;;;;20.91;100.00;100788.00;5074945;28;20372;-72
2023/07/29 08:59:11;;;;;;;;;;;;;;;20.75;100.00;100783.88;5075595;28;19932;-72
2023/07/29 09:01:38;;;;;;;;;;;;;;;20.70;100.00;100789.06;5075715;28;20361;-73
2023/07/29 09:04:03;;;;;;;;;;;;;;;20.79;100.00;100789.69;5076099;28;19948;-71
2023/07/29 09:06:29;;;;;;;;;;;;;;;20.72;100.00;100791.53;5075611;28;19985;-72
2023/07/29 09:08:56;;;;;;;;;;;;;;;20.52;100.00;100794.22;5075695;28;19917;-73
2023/07/29 09:11:21;;;;;;;;;;;;;;;20.12;100.00;100788.72;5075545;28;19923;-73
2023/07/29 09:13:47;;;;;;;;;;;;;;;19.84;100.00;100790.50;5075551;28;19920;-70
2023/07/29 09:16:13;;;;;;;;;;;;;;;19.62;100.00;100794.31;5075951;28;20485;-73
2023/07/29 09:18:38;;;;;;;;;;;;;;;19.49;100.00;100779.72;5075405;28;19916;-75
2023/07/29 09:21:03;;;;;;;;;;;;;;;19.50;100.00;100792.19;5076144;28;19917;-75
2023/07/29 09:23:38;;;;;;;;;;;;;;;19.62;100.00;100783.53;5075224;28;19963;-73
2023/07/29 09:26:03;;;;;;;;;;;;;;;19.67;100.00;100795.38;5075439;28;19916;-73
2023/07/29 09:28:32;;;;;;;;;;;;;;;19.60;100.00;100797.22;5075069;28;20394;-72
2023/07/29 09:30:59;;;;;;;;;;;;;;;19.34;100.00;100806.81;5075320;28;19917;-71
2023/07/29 09:33:25;;;;;;;;;;;;;;;19.17;100.00;100795.50;5075289;28;19967;-72
2023/07/29 09:35:51;;;;;;;;;;;;;;;19.03;100.00;100786.50;5040470;28;19999;-73
2023/07/29 09:38:16;;;;;;;;;;;;;;;19.08;100.00;100783.22;5075361;28;20020;-72
2023/07/29 09:40:41;;;;;;;;;;;;;;;19.21;100.00;100790.53;5074976;28;19939;-75
2023/07/29 09:43:09;;;;;;;;;;;;;;;19.39;100.00;100787.31;5075025;28;19924;-75
2023/07/29 09:45:35;;;;;;;;;;;;;;;19.58;100.00;100780.38;5074469;28;19923;-74
2023/07/29 09:48:01;;;;;;;;;;;;;;;19.87;100.00;100786.56;5074571;28;19924;-75
2023/07/29 09:50:27;;;;;;;;;;;;;;;20.07;100.00;100795.56;5074734;28;19974;-76
2023/07/29 09:52:53;;;;;;;;;;;;;;;20.16;100.00;100790.00;5074905;28;19962;-78
2023/07/29 09:55:19;;;;;;;;;;;;;;;20.06;100.00;100783.13;5074751;28;19917;-78
2023/07/29 09:57:45;;;;;;;;;;;;;;;19.80;100.00;100788.41;5074485;28;19924;-79
2023/07/29 10:00:13;;;;;;;;;;;;;;;19.62;100.00;100787.06;5075206;28;19916;-76
2023/07/29 10:02:39;;;;;;;;;;;;;;;19.46;100.00;100784.69;5074460;28;19919;-82
2023/07/29 10:05:05;;;;;;;;;;;;;;;19.33;100.00;100780.03;5074701;28;19916;-80
2023/07/29 10:07:31;;;;;;;;;;;;;;;19.16;100.00;100787.63;5074040;28;20360;-84
2023/07/29 10:09:57;;;;;;;;;;;;;;;18.96;100.00;100799.09;5073882;28;19926;-84
2023/07/29 10:12:24;;;;;;;;;;;;;;;18.82;100.00;100799.97;5074539;28;19919;-75
2023/07/29 10:14:50;;;;;;;;;;;;;;;18.71;100.00;100805.91;5074194;28;19916;-75
2023/07/29 10:17:16;;;;;;;;;;;;;;;18.57;100.00;100811.16;5074037;28;20308;-73
2023/07/29 10:19:42;;;;;;;;;;;;;;;18.40;100.00;100826.72;5074605;28;20246;-77
2023/07/29 10:22:08;;;;;;;;;;;;;;;18.21;100.00;100820.09;5074238;28;19958;-76
2023/07/29 10:24:34;;;;;;;;;;;;;;;18.10;100.00;100809.81;5074147;28;19921;-74
2023/07/29 10:27:01;;;;;;;;;;;;;;;18.16;100.00;100817.13;5056354;28;19924;-71
2023/07/29 10:29:36;;;;;;;;;;;;;;;18.36;100.00;100817.34;5055933;28;19923;-73
2023/07/29 10:32:03;;;;;;;;;;;;;;;18.62;100.00;100814.09;5074391;28;19916;-73
2023/07/29 10:34:29;;;;;;;;;;;;;;;18.82;100.00;100816.13;5074568;28;19920;-73
2023/07/29 10:36:55;;;;;;;;;;;;;;;18.91;100.00;100815.00;5073877;28;19920;-73
2023/07/29 10:39:20;;;;;;;;;;;;;;;18.91;100.00;100811.47;5073708;28;19921;-73
2023/07/29 10:41:55;;;;;;;;;;;;;;;18.87;100.00;100819.13;5039186;28;20395;-72
2023/07/29 10:44:39;;;;;;;;;;;;;;;18.68;100.00;100810.63;5073891;28;19916;-72
2023/07/29 10:47:14;;;;;;;;;;;;;;;18.58;100.00;100814.69;5074188;28;19917;-70
2023/07/29 10:49:40;;;;;;;;;;;;;;;18.58;100.00;100802.03;5073497;28;20380;-70
2023/07/29 10:52:06;;;;;;;;;;;;;;;18.54;100.00;100808.84;5073638;28;19927;-71
2023/07/29 10:54:41;;;;;;;;;;;;;;;18.53;100.00;100812.56;5073740;28;19966;-71
2023/07/29 10:57:06;;;;;;;;;;;;;;;18.62;100.00;100799.81;5073788;28;20015;-72
2023/07/29 10:59:34;;;;;;;;;;;;;;;18.78;100.00;100798.69;5073169;28;21821;-73
2023/07/29 11:02:00;;;;;;;;;;;;;;;19.02;100.00;100798.31;5073502;28;19970;-73
2023/07/29 11:04:29;;;;;;;;;;;;;;;19.40;100.00;100796.28;5073691;28;19916;-72
2023/07/29 11:07:03;;;;;;;;;;;;;;;19.88;100.00;100799.88;5074320;28;19924;-79
2023/07/29 11:09:47;;;;;;;;;;;;;;;20.22;100.00;100787.28;5073595;28;20424;-76
2023/07/29 11:12:31;;;;;;;;;;;;;;;20.39;100.00;100798.56;5073824;28;19917;-78
2023/07/29 11:14:56;;;;;;;;;;;;;;;20.33;100.00;100796.69;5073367;28;19969;-77
2023/07/29 11:17:21;;;;;;;;;;;;;;;20.18;100.00;100787.91;5073643;28;19924;-76
2023/07/29 11:19:47;;;;;;;;;;;;;;;19.99;100.00;100784.09;5073283;28;20344;-77
2023/07/29 11:22:13;;;;;;;;;;;;;;;19.90;100.00;100792.41;5073497;28;19930;-76
2023/07/29 11:24:41;;;;;;;;;;;;;;;19.88;100.00;100783.69;5073442;28;20232;-77
2023/07/29 11:27:10;;;;;;;;;;;;;;;19.95;100.00;100786.38;5073831;28;19924;-77
2023/07/29 11:29:36;;;;;;;;;;;;;;;20.02;100.00;100792.66;5073749;28;19916;-77
2023/07/29 11:32:02;;;;;;;;;;;;;;;20.10;100.00;100793.50;5073406;28;19966;-79
2023/07/29 11:34:31;;;;;;;;;;;;;;;20.31;100.00;100800.63;5073458;28;20352;-76
2023/07/29 11:36:56;;;;;;;;;;;;;;;20.13;100.00;100802.03;5073025;28;19927;-81
2023/07/29 11:39:22;;;;;;;;;;;;;;;20.15;100.00;100808.03;5055691;28;19969;-79
2023/07/29 11:41:47;;;;;;;;;;;;;;;20.26;100.00;100809.34;5073408;28;19917;-82
2023/07/29 11:44:16;;;;;;;;;;;;;;;20.39;100.00;100805.81;5073086;28;19921;-77
2023/07/29 11:46:42;;;;;;;;;;;;;;;20.35;100.00;100816.22;5073119;28;19916;-75
2023/07/29 11:49:07;;;;;;;;;;;;;;;20.31;100.00;100811.44;5072846;28;20023;-75
2023/07/29 11:51:33;;;;;;;;;;;;;;;20.60;100.00;100807.50;5073394;28;20341;-74
2023/07/29 11:53:58;;;;;;;;;;;;;;;20.74;100.00;100800.31;5038797;28;20338;-74
2023/07/29 11:56:23;;;;;;;;;;;;;;;21.00;100.00;100804.84;5073308;28;19916;-71
2023/07/29 11:58:49;;;;;;;;;;;;;;;21.06;100.00;100803.19;5054398;28;20356;-75
2023/07/29 12:01:14;;;;;;;;;;;;;;;21.31;100.00;100801.50;5073271;28;19928;-76
2023/07/29 12:03:39;;;;;;;;;;;;;;;21.74;100.00;100802.88;5054972;28;20368;-75
2023/07/29 12:06:05;;;;;;;;;;;;;;;22.49;100.00;100802.28;5072767;28;19917;-74
2023/07/29 12:08:30;;;;;;;;;;;;;;;23.09;100.00;100794.72;5073435;28;19923;-74
2023/07/29 12:10:55;;;;;;;;;;;;;;;23.98;100.00;100795.25;5055280;28;19921;-73
2023/07/29 12:13:23;;;;;;;;;;;;;;;24.59;100.00;100803.41;5073010;28;19920;-76
2023/07/29 12:15:49;;;;;;;;;;;;;;;25.20;100.00;100793.16;5072643;28;19962;-76
2023/07/29 12:18:14;;;;;;;;;;;;;;;25.17;100.00;100786.28;5072447;28;19920;-73
2023/07/29 12:20:40;;;;;;;;;;;;;;;25.78;100.00;100786.00;5072860;28;19920;-75
2023/07/29 12:23:07;;;;;;;;;;;;;;;26.54;100.00;100779.47;5073101;28;20395;-76